createdAt,value
2017-01-04T00:00:05.673Z,33.1
2017-01-04T00:02:05.940Z,33.1
2017-01-04T00:04:05.665Z,33
2017-01-04T00:06:05.745Z,33.2
2017-01-04T00:08:08.383Z,33.2
2017-01-04T00:10:05.678Z,33.2
2017-01-04T00:12:05.486Z,33.1
2017-01-04T00:14:05.396Z,33.2
2017-01-04T00:16:07.802Z,33
2017-01-04T00:18:05.746Z,33
2017-01-04T00:20:05.589Z,33.1
2017-01-04T00:22:05.687Z,33.1
2017-01-04T00:24:05.441Z,33.1
2017-01-04T00:26:05.455Z,33.1
2017-01-04T00:28:07.702Z,32.9
2017-01-04T00:30:05.429Z,32.7
2017-01-04T00:32:05.921Z,33
2017-01-04T00:34:05.706Z,33
2017-01-04T00:36:06.037Z,33
2017-01-04T00:38:05.813Z,32.9
2017-01-04T00:40:07.638Z,32.8
2017-01-04T00:42:05.337Z,32.6
2017-01-04T00:44:08.092Z,32.7
2017-01-04T00:46:05.795Z,32.7
2017-01-04T00:48:05.593Z,32.6
2017-01-04T00:50:05.346Z,32.6
2017-01-04T00:52:05.050Z,32.6
2017-01-04T00:54:06.000Z,32.5
2017-01-04T00:56:05.792Z,32.5
2017-01-04T00:58:06.504Z,32.5
2017-01-04T01:00:05.171Z,32.5
2017-01-04T01:02:06.235Z,32.5
2017-01-04T01:04:05.507Z,32.2
2017-01-04T01:06:05.228Z,32.2
2017-01-04T01:08:06.364Z,32.3
2017-01-04T01:10:05.266Z,32.3
2017-01-04T01:12:05.538Z,32.1
2017-01-04T01:14:06.293Z,32.3
2017-01-04T01:16:04.996Z,32.1
2017-01-04T01:18:05.882Z,31.8
2017-01-04T01:20:06.025Z,31.8
2017-01-04T01:22:05.732Z,31.8
2017-01-04T01:24:05.156Z,31.7
2017-01-04T01:26:06.051Z,31.7
2017-01-04T01:28:05.810Z,31.8
2017-01-04T01:30:05.581Z,31.8
2017-01-04T01:32:05.293Z,31.8
2017-01-04T01:34:06.028Z,31.4
2017-01-04T01:36:08.360Z,31.5
2017-01-04T01:38:05.990Z,31.5
2017-01-04T01:40:08.266Z,31.3
2017-01-04T01:42:05.565Z,31.3
2017-01-04T01:44:05.416Z,31.4
2017-01-04T01:46:05.118Z,31.4
2017-01-04T01:48:05.354Z,31.5
2017-01-04T01:50:05.061Z,31.2
2017-01-04T01:52:05.791Z,31.4
2017-01-04T01:54:05.536Z,31.1
2017-01-04T01:56:05.297Z,31.1
2017-01-04T01:58:05.978Z,31.3
2017-01-04T02:00:05.744Z,31.1
2017-01-04T02:02:05.700Z,31.1
2017-01-04T02:04:05.406Z,31.1
2017-01-04T02:06:05.613Z,31.1
2017-01-04T02:08:05.537Z,31.2
2017-01-04T02:10:05.383Z,31.2
2017-01-04T02:12:05.088Z,31.1
2017-01-04T02:14:06.016Z,31.2
2017-01-04T02:16:05.731Z,31.2
2017-01-04T02:18:05.612Z,31.2
2017-01-04T02:20:05.749Z,31.3
2017-01-04T02:22:05.483Z,31.2
2017-01-04T02:24:10.269Z,31.2
2017-01-04T02:26:05.118Z,31.2
2017-01-04T02:28:05.830Z,31.3
2017-01-04T02:30:05.921Z,31.3
2017-01-04T02:32:05.939Z,31.3
2017-01-04T02:34:10.229Z,31.1
2017-01-04T02:36:05.921Z,31.2
2017-01-04T02:38:05.813Z,31.2
2017-01-04T02:40:10.550Z,31.2
2017-01-04T02:42:05.293Z,31.2
2017-01-04T02:44:07.714Z,31.2
2017-01-04T02:46:10.736Z,31.2
2017-01-04T02:48:05.424Z,31.2
2017-01-04T02:50:05.348Z,31.2
2017-01-04T02:52:10.124Z,31.2
2017-01-04T02:54:08.490Z,31.2
2017-01-04T02:56:05.224Z,31.2
2017-01-04T02:58:05.991Z,31.3
2017-01-04T03:00:10.786Z,31.2
2017-01-04T03:02:05.632Z,31.2
2017-01-04T03:04:05.344Z,31.3
2017-01-04T03:06:05.087Z,31.3
2017-01-04T03:08:05.843Z,31.3
2017-01-04T03:10:05.616Z,31.3
2017-01-04T03:12:05.388Z,31.3
2017-01-04T03:14:05.262Z,31.4
2017-01-04T03:16:06.013Z,31.3
2017-01-04T03:18:08.631Z,31.3
2017-01-04T03:20:05.650Z,31.3
2017-01-04T03:22:06.653Z,31.4
2017-01-04T03:24:08.038Z,31.4
2017-01-04T03:26:06.099Z,31.4
2017-01-04T03:28:05.808Z,31.5
2017-01-04T03:30:05.474Z,31.4
2017-01-04T03:32:05.379Z,31.5
2017-01-04T03:34:08.492Z,31.5
2017-01-04T03:36:05.180Z,31.5
2017-01-04T03:38:06.298Z,31.5
2017-01-04T03:40:05.081Z,31.4
2017-01-04T03:42:08.800Z,31.5
2017-01-04T03:44:05.480Z,31.5
2017-01-04T03:46:08.378Z,31.5
2017-01-04T03:48:05.104Z,31.5
2017-01-04T03:50:06.183Z,31.5
2017-01-04T03:52:06.158Z,31.5
2017-01-04T03:54:05.181Z,31.5
2017-01-04T03:56:06.157Z,31.5
2017-01-04T03:58:05.437Z,31.5
2017-01-04T04:00:06.012Z,31.5
2017-01-04T04:02:05.497Z,31.5
2017-01-04T04:04:05.312Z,31.5
2017-01-04T04:06:05.480Z,31.5
2017-01-04T04:08:05.488Z,31.5
2017-01-04T04:10:05.214Z,31.5
2017-01-04T04:12:05.997Z,31.5
2017-01-04T04:14:05.456Z,31.5
2017-01-04T04:16:05.217Z,31.5
2017-01-04T04:18:07.796Z,31.5
2017-01-04T04:20:08.347Z,31.8
2017-01-04T04:22:07.966Z,31.8
2017-01-04T04:24:05.700Z,31.8
2017-01-04T04:26:06.036Z,31.8
2017-01-04T04:28:05.757Z,31.8
2017-01-04T04:30:05.494Z,31.8
2017-01-04T04:32:05.439Z,31.8
2017-01-04T04:34:05.230Z,31.8
2017-01-04T04:36:05.474Z,31.8
2017-01-04T04:38:08.041Z,31.8
2017-01-04T04:40:05.346Z,31.8
2017-01-04T04:42:05.012Z,31.8
2017-01-04T04:44:06.076Z,31.8
2017-01-04T04:46:05.873Z,31.8
2017-01-04T04:48:05.745Z,31.8
2017-01-04T04:50:08.069Z,31.8
2017-01-04T04:52:05.810Z,31.8
2017-01-04T04:54:05.625Z,31.8
2017-01-04T04:56:05.908Z,31.8
2017-01-04T04:58:08.279Z,31.8
2017-01-04T05:00:05.991Z,31.8
2017-01-04T05:02:05.919Z,31.7
2017-01-04T05:04:05.679Z,31.7
2017-01-04T05:06:10.689Z,31.7
2017-01-04T05:08:06.206Z,31.7
2017-01-04T05:10:06.080Z,31.7
2017-01-04T05:12:08.342Z,31.7
2017-01-04T05:14:05.097Z,31.7
2017-01-04T05:16:10.915Z,31.8
2017-01-04T05:18:05.818Z,31.8
2017-01-04T05:20:05.798Z,31.8
2017-01-04T05:22:05.525Z,31.8
2017-01-04T05:24:10.320Z,31.8
2017-01-04T05:26:10.861Z,31.8
2017-01-04T05:28:05.550Z,31.8
2017-01-04T05:30:05.827Z,31.8
2017-01-04T05:32:08.212Z,31.8
2017-01-04T05:34:05.934Z,31.8
2017-01-04T05:36:07.735Z,31.8
2017-01-04T05:38:05.681Z,31.8
2017-01-04T05:40:07.968Z,31.8
2017-01-04T05:42:05.677Z,31.8
2017-01-04T05:44:05.701Z,31.8
2017-01-04T05:46:10.475Z,32
2017-01-04T05:48:07.813Z,31.8
2017-01-04T05:50:05.916Z,31.7
2017-01-04T05:52:06.847Z,31.8
2017-01-04T05:54:07.638Z,32
2017-01-04T05:56:08.123Z,32
2017-01-04T05:58:06.169Z,32
2017-01-04T06:00:05.885Z,32
2017-01-04T06:02:08.053Z,32
2017-01-04T06:04:05.784Z,32
2017-01-04T06:06:05.494Z,32
2017-01-04T06:08:05.411Z,32
2017-01-04T06:10:05.163Z,32
2017-01-04T06:12:05.915Z,32
2017-01-04T06:14:07.834Z,32
2017-01-04T06:16:08.193Z,32
2017-01-04T06:18:07.675Z,32
2017-01-04T06:20:07.961Z,32
2017-01-04T06:22:05.680Z,32
2017-01-04T06:24:05.455Z,32
2017-01-04T06:26:15.435Z,32
2017-01-04T06:28:10.187Z,32
2017-01-04T06:30:05.983Z,32
2017-01-04T06:32:06.024Z,32
2017-01-04T06:34:05.793Z,32
2017-01-04T06:36:13.048Z,32
2017-01-04T06:38:05.841Z,32
2017-01-04T06:40:05.543Z,32
2017-01-04T06:42:05.254Z,32
2017-01-04T06:44:07.729Z,32
2017-01-04T06:46:05.449Z,32
2017-01-04T06:48:05.709Z,32
2017-01-04T06:50:05.516Z,32
2017-01-04T06:52:05.334Z,32
2017-01-04T06:54:05.263Z,32
2017-01-04T06:56:05.220Z,32
2017-01-04T06:58:05.945Z,32
2017-01-04T07:00:05.689Z,32.2
2017-01-04T07:02:05.751Z,32.2
2017-01-04T07:04:06.007Z,32.2
2017-01-04T07:06:08.250Z,32.2
2017-01-04T07:08:10.570Z,32.2
2017-01-04T07:10:05.329Z,32.2
2017-01-04T07:12:10.100Z,32.2
2017-01-04T07:14:06.145Z,32
2017-01-04T07:16:05.847Z,32.2
2017-01-04T07:18:06.130Z,32.2
2017-01-04T07:20:10.675Z,32
2017-01-04T07:22:05.380Z,31.8
2017-01-04T07:24:05.126Z,31.8
2017-01-04T07:26:05.998Z,32
2017-01-04T07:28:08.445Z,32
2017-01-04T07:30:05.879Z,32
2017-01-04T07:32:06.059Z,32.2
2017-01-04T07:34:06.099Z,32.3
2017-01-04T07:36:05.877Z,32.5
2017-01-04T07:38:06.174Z,32.6
2017-01-04T07:40:05.559Z,32.7
2017-01-04T07:42:05.259Z,32.7
2017-01-04T07:44:06.001Z,32.9
2017-01-04T07:46:05.256Z,32.8
2017-01-04T07:48:05.962Z,33.1
2017-01-04T07:50:05.888Z,33.1
2017-01-04T07:52:05.621Z,33.1
2017-01-04T07:54:05.347Z,33.1
2017-01-04T07:56:05.451Z,33.1
2017-01-04T07:58:05.246Z,33.1
2017-01-04T08:00:05.148Z,33.2
2017-01-04T08:02:06.183Z,33.4
2017-01-04T08:04:07.941Z,33.4
2017-01-04T08:06:14.549Z,33.5
2017-01-04T08:08:05.556Z,33.5
2017-01-04T08:10:05.438Z,33.4
2017-01-04T08:12:05.229Z,33.2
2017-01-04T08:14:06.208Z,33.3
2017-01-04T08:16:07.965Z,33
2017-01-04T08:18:12.754Z,33
2017-01-04T08:20:05.771Z,33
2017-01-04T08:22:05.246Z,33
2017-01-04T08:24:05.985Z,33.1
2017-01-04T08:26:05.581Z,33.1
2017-01-04T08:28:05.311Z,33.1
2017-01-04T08:30:10.129Z,33.1
2017-01-04T08:32:08.253Z,33.1
2017-01-04T08:34:06.007Z,33.1
2017-01-04T08:36:05.718Z,33.3
2017-01-04T08:38:05.567Z,33.3
2017-01-04T08:40:05.282Z,33.5
2017-01-04T08:42:05.736Z,33.6
2017-01-04T08:44:10.798Z,34.2
2017-01-04T08:46:05.516Z,34
2017-01-04T08:48:05.223Z,34.3
2017-01-04T08:50:06.085Z,34.3
2017-01-04T08:52:05.789Z,34.5
2017-01-04T08:54:05.817Z,34.5
2017-01-04T08:56:05.821Z,34.4
2017-01-04T08:58:05.518Z,34.4
2017-01-04T09:00:07.822Z,34.2
2017-01-04T09:02:05.788Z,34.5
2017-01-04T09:04:05.831Z,34.2
2017-01-04T09:06:05.570Z,34.2
2017-01-04T09:08:05.321Z,34.2
2017-01-04T09:10:07.650Z,34.3
2017-01-04T09:12:05.436Z,34.3
2017-01-04T09:14:08.064Z,34.3
2017-01-04T09:16:05.855Z,34.3
2017-01-04T09:18:05.772Z,34.3
2017-01-04T09:20:05.484Z,34.3
2017-01-04T09:22:05.887Z,34.3
2017-01-04T09:24:07.624Z,34
2017-01-04T09:26:05.715Z,34.1
2017-01-04T09:28:05.630Z,34.2
2017-01-04T09:30:08.053Z,34.1
2017-01-04T09:32:05.921Z,34.3
2017-01-04T09:34:05.634Z,34.3
2017-01-04T09:36:05.323Z,34
2017-01-04T09:38:07.968Z,34.2
2017-01-04T09:40:05.808Z,34.2
2017-01-04T09:42:17.600Z,34.3
2017-01-04T09:44:08.050Z,34.1
2017-01-04T09:46:05.790Z,34.1
2017-01-04T09:48:06.597Z,34.4
2017-01-04T09:50:05.955Z,34.1
2017-01-04T09:52:08.257Z,34.2
2017-01-04T09:54:07.496Z,34.1
2017-01-04T09:56:05.214Z,34.1
2017-01-04T09:58:06.562Z,34.1
2017-01-04T10:00:05.379Z,34
2017-01-04T10:02:07.665Z,34.1
2017-01-04T10:04:05.452Z,34.1
2017-01-04T10:06:05.805Z,34
2017-01-04T10:08:06.680Z,34.1
2017-01-04T10:10:13.061Z,34.2
2017-01-04T10:12:05.854Z,34.2
2017-01-04T10:14:05.757Z,34.1
2017-01-04T10:16:06.021Z,34.1
2017-01-04T10:18:05.974Z,34.1
2017-01-04T10:20:07.808Z,34.5
2017-01-04T10:22:05.651Z,34.5
2017-01-04T10:24:05.392Z,33.9
2017-01-04T10:26:05.417Z,33.6
2017-01-04T10:28:05.758Z,33.8
2017-01-04T10:30:08.026Z,34
2017-01-04T10:32:05.720Z,34
2017-01-04T10:34:05.470Z,34
2017-01-04T10:36:05.239Z,34.7
2017-01-04T10:38:13.565Z,34.2
2017-01-04T10:40:05.329Z,34.2
2017-01-04T10:42:12.686Z,34.6
2017-01-04T10:44:05.506Z,34.6
2017-01-04T10:46:05.347Z,34.6
2017-01-04T10:48:05.660Z,34.6
2017-01-04T10:50:05.507Z,34.4
2017-01-04T10:52:05.316Z,34.4
2017-01-04T10:54:08.356Z,34.4
2017-01-04T10:56:05.615Z,34.4
2017-01-04T10:58:07.874Z,35
2017-01-04T11:00:05.788Z,34.7
2017-01-04T11:02:06.020Z,34.9
2017-01-04T11:04:05.972Z,35
2017-01-04T11:06:08.245Z,34.9
2017-01-04T11:08:06.102Z,34.9
2017-01-04T11:10:08.387Z,34.9
2017-01-04T11:12:05.311Z,34.9
2017-01-04T11:14:05.341Z,35.1
2017-01-04T11:16:07.637Z,35.3
2017-01-04T11:18:05.861Z,35.1
2017-01-04T11:20:05.911Z,35.5
2017-01-04T11:22:08.122Z,35.3
2017-01-04T11:24:08.416Z,35.6
2017-01-04T11:26:05.327Z,35.3
2017-01-04T11:28:05.091Z,35.7
2017-01-04T11:30:07.565Z,35.6
2017-01-04T11:32:06.667Z,35.6
2017-01-04T11:34:05.498Z,35.8
2017-01-04T11:36:05.231Z,35.7
2017-01-04T11:38:06.092Z,35.5
2017-01-04T11:40:05.319Z,35.5
2017-01-04T11:42:10.108Z,35.3
2017-01-04T11:44:06.195Z,35.5
2017-01-04T11:46:05.863Z,35.8
2017-01-04T11:48:07.616Z,35.5
2017-01-04T11:50:05.732Z,35.5
2017-01-04T11:52:06.048Z,35.5
2017-01-04T11:54:11.834Z,35.9
2017-01-04T11:56:05.652Z,35.8
2017-01-04T11:58:05.604Z,35.7
2017-01-04T12:00:05.345Z,35.7
2017-01-04T12:02:05.635Z,35.7
2017-01-04T12:04:06.594Z,35.6
2017-01-04T12:06:06.417Z,35.9
2017-01-04T12:08:05.678Z,35.8
2017-01-04T12:10:05.433Z,35.8
2017-01-04T12:12:05.165Z,35.8
2017-01-04T12:14:06.052Z,35.9
2017-01-04T12:16:05.823Z,35.8
2017-01-04T12:18:05.990Z,35.6
2017-01-04T12:20:06.240Z,35.9
2017-01-04T12:22:06.276Z,36.4
2017-01-04T12:24:06.010Z,36.2
2017-01-04T12:26:06.040Z,36
2017-01-04T12:28:10.795Z,36.3
2017-01-04T12:30:05.628Z,36.4
2017-01-04T12:32:05.704Z,36.2
2017-01-04T12:34:05.947Z,36.1
2017-01-04T12:36:05.720Z,36.5
2017-01-04T12:38:06.012Z,37
2017-01-04T12:40:05.786Z,36.6
2017-01-04T12:42:05.543Z,36.8
2017-01-04T12:44:06.098Z,36.4
2017-01-04T12:46:05.398Z,36.3
2017-01-04T12:48:05.153Z,36.2
2017-01-04T12:50:06.280Z,36.2
2017-01-04T12:52:05.511Z,36.1
2017-01-04T12:54:13.107Z,36.1
2017-01-04T12:56:06.183Z,36
2017-01-04T12:58:05.890Z,36.2
2017-01-04T13:00:05.615Z,35.9
2017-01-04T13:02:05.690Z,36
2017-01-04T13:04:07.917Z,36.1
2017-01-04T13:06:05.641Z,35.9
2017-01-04T13:08:05.693Z,35.8
2017-01-04T13:10:08.235Z,35.7
2017-01-04T13:12:05.473Z,35.7
2017-01-04T13:14:07.863Z,35.5
2017-01-04T13:16:05.661Z,35.5
2017-01-04T13:18:05.581Z,35.5
2017-01-04T13:20:05.363Z,35.5
2017-01-04T13:22:05.125Z,35.6
2017-01-04T13:24:06.851Z,35.6
2017-01-04T13:26:08.463Z,35.6
2017-01-04T13:28:07.732Z,35.3
2017-01-04T13:30:05.441Z,35.3
2017-01-04T13:32:05.177Z,35.4
2017-01-04T13:34:05.879Z,35.3
2017-01-04T13:36:08.148Z,35.3
2017-01-04T13:38:07.028Z,35.6
2017-01-04T13:40:37.383Z,35.6
2017-01-04T13:42:08.254Z,35.6
2017-01-04T13:44:05.970Z,35.4
2017-01-04T13:46:05.678Z,35.4
2017-01-04T13:48:05.396Z,35.4
2017-01-04T13:50:07.712Z,35.3
2017-01-04T13:52:08.462Z,35.4
2017-01-04T13:54:05.146Z,35.4
2017-01-04T13:56:05.533Z,35.4
2017-01-04T13:58:05.602Z,35.4
2017-01-04T14:00:05.826Z,35.4
2017-01-04T14:02:05.945Z,35.4
2017-01-04T14:04:05.665Z,35.5
2017-01-04T14:06:05.379Z,35.4
2017-01-04T14:08:05.580Z,35.4
2017-01-04T14:10:05.329Z,35.4
2017-01-04T14:12:05.660Z,35.4
2017-01-04T14:14:05.761Z,35.4
2017-01-04T14:16:05.563Z,35.3
2017-01-04T14:18:05.525Z,35.4
2017-01-04T14:20:05.379Z,35.5
2017-01-04T14:22:10.145Z,35.4
2017-01-04T14:24:10.469Z,35.4
2017-01-04T14:26:07.713Z,35.4
2017-01-04T14:28:05.416Z,35.4
2017-01-04T14:30:05.273Z,35.4
2017-01-04T14:32:06.018Z,35.5
2017-01-04T14:34:05.702Z,35.4
2017-01-04T14:36:07.977Z,35.4
2017-01-04T14:38:05.400Z,35.4
2017-01-04T14:40:05.256Z,35.4
2017-01-04T14:42:08.045Z,35.6
2017-01-04T14:44:05.940Z,35.6
2017-01-04T14:46:06.241Z,35.5
2017-01-04T14:48:05.537Z,35.5
2017-01-04T14:50:05.407Z,35.3
2017-01-04T14:52:05.155Z,35.3
2017-01-04T14:54:05.395Z,35.4
2017-01-04T14:56:05.803Z,35.4
2017-01-04T14:58:10.555Z,35.3
2017-01-04T15:00:05.256Z,35.3
2017-01-04T15:02:08.647Z,35.4
2017-01-04T15:04:07.924Z,35.6
2017-01-04T15:06:08.242Z,35.7
2017-01-04T15:08:06.150Z,35.7
2017-01-04T15:10:08.368Z,35.7
2017-01-04T15:12:07.607Z,35.7
2017-01-04T15:14:08.891Z,36.1
2017-01-04T15:16:05.620Z,35.8
2017-01-04T15:18:07.934Z,36.3
2017-01-04T15:20:05.455Z,36.2
2017-01-04T15:22:05.201Z,36.2
2017-01-04T15:24:05.944Z,36.5
2017-01-04T15:26:05.746Z,36.5
2017-01-04T15:28:05.493Z,36.5
2017-01-04T15:30:05.749Z,36.6
2017-01-04T15:32:05.323Z,36.6
2017-01-04T15:34:05.170Z,36.6
2017-01-04T15:36:05.967Z,36.6
2017-01-04T15:38:05.933Z,36.7
2017-01-04T15:40:05.754Z,36.8
2017-01-04T15:42:05.477Z,36.8
2017-01-04T15:44:05.634Z,36.8
2017-01-04T15:46:05.351Z,36.9
2017-01-04T15:48:05.630Z,37
2017-01-04T15:50:08.139Z,37.1
2017-01-04T15:52:05.856Z,37
2017-01-04T15:54:05.092Z,37.3
2017-01-04T15:56:11.049Z,37.1
2017-01-04T15:58:08.302Z,37.3
2017-01-04T16:00:05.437Z,37.1
2017-01-04T16:02:06.055Z,37.1
2017-01-04T16:04:05.286Z,37.7
2017-01-04T16:06:05.123Z,37.3
2017-01-04T16:08:05.377Z,37.1
2017-01-04T16:10:05.135Z,37.1
2017-01-04T16:12:05.883Z,37.3
2017-01-04T16:14:07.631Z,37
2017-01-04T16:16:11.081Z,37.3
2017-01-04T16:18:05.483Z,37.3
2017-01-04T16:20:05.485Z,37.5
2017-01-04T16:22:06.081Z,37.4
2017-01-04T16:24:05.815Z,37.6
2017-01-04T16:26:10.871Z,37.3
2017-01-04T16:28:05.645Z,37.3
2017-01-04T16:30:05.353Z,37.8
2017-01-04T16:32:05.521Z,37.8
2017-01-04T16:34:05.209Z,37.9
2017-01-04T16:36:05.979Z,37.8
2017-01-04T16:38:08.539Z,38.3
2017-01-04T16:40:05.252Z,38
2017-01-04T16:42:05.547Z,37.7
2017-01-04T16:44:18.505Z,37.3
2017-01-04T16:46:05.405Z,37.3
2017-01-04T16:48:05.124Z,37.3
2017-01-04T16:50:06.183Z,37.1
2017-01-04T16:52:05.905Z,37.1
2017-01-04T16:54:06.796Z,37.2
2017-01-04T16:56:05.817Z,37.3
2017-01-04T16:58:05.319Z,37.3
2017-01-04T17:00:07.623Z,37.4
2017-01-04T17:02:08.606Z,37.3
2017-01-04T17:04:06.846Z,37.3
2017-01-04T17:06:13.389Z,37.2
2017-01-04T17:08:05.092Z,37
2017-01-04T17:10:08.727Z,37
2017-01-04T17:12:05.423Z,37
2017-01-04T17:14:05.510Z,36.8
2017-01-04T17:16:08.817Z,36.6
2017-01-04T17:18:08.999Z,36.6
2017-01-04T17:20:06.024Z,36.6
2017-01-04T17:22:05.754Z,36.4
2017-01-04T17:24:06.989Z,36.4
2017-01-04T17:26:08.425Z,36.3
2017-01-04T17:28:07.936Z,36.3
2017-01-04T17:30:05.662Z,36.3
2017-01-04T17:32:08.643Z,36.2
2017-01-04T17:34:07.862Z,36.3
2017-01-04T17:36:05.550Z,36.2
2017-01-04T17:38:07.781Z,36
2017-01-04T17:40:05.512Z,36
2017-01-04T17:42:05.231Z,36.2
2017-01-04T17:44:06.075Z,36
2017-01-04T17:46:06.867Z,36
2017-01-04T17:48:36.628Z,36.1
2017-01-04T17:50:10.692Z,36.1
2017-01-04T17:52:05.403Z,36.3
2017-01-04T17:54:05.347Z,36.3
2017-01-04T17:56:07.616Z,36.2
2017-01-04T17:58:05.397Z,36.2
2017-01-04T18:00:05.155Z,36.2
2017-01-04T18:02:06.231Z,36.1
2017-01-04T18:04:08.508Z,36.1
2017-01-04T18:06:05.224Z,36.1
2017-01-04T18:08:08.502Z,36.1
2017-01-04T18:10:05.461Z,35.9
2017-01-04T18:12:05.177Z,35.8
2017-01-04T18:14:08.292Z,35.8
2017-01-04T18:16:06.085Z,35.8
2017-01-04T18:18:05.011Z,35.8
2017-01-04T18:20:05.775Z,35.8
2017-01-04T18:22:05.697Z,35.8
2017-01-04T18:24:12.611Z,35.8
2017-01-04T18:26:06.169Z,35.8
2017-01-04T18:28:05.892Z,35.8
2017-01-04T18:30:05.919Z,35.8
2017-01-04T18:32:08.201Z,35.8
2017-01-04T18:34:10.535Z,35.8
2017-01-04T18:36:05.343Z,35.8
2017-01-04T18:38:05.283Z,35.7
2017-01-04T18:40:08.511Z,35.7
2017-01-04T18:42:05.269Z,35.7
2017-01-04T18:44:05.912Z,35.7
2017-01-04T18:46:13.548Z,35.8
2017-01-04T18:48:06.079Z,35.8
2017-01-04T18:50:06.129Z,35.8
2017-01-04T18:52:05.908Z,35.7
2017-01-04T18:54:05.612Z,35.8
2017-01-04T18:56:10.892Z,35.9
2017-01-04T18:58:05.585Z,35.9
2017-01-04T19:00:05.307Z,35.9
2017-01-04T19:02:06.025Z,35.8
2017-01-04T19:04:05.780Z,35.7
2017-01-04T19:06:05.722Z,35.7
2017-01-04T19:08:05.456Z,35.7
2017-01-04T19:10:10.249Z,35.7
2017-01-04T19:12:06.083Z,35.4
2017-01-04T19:14:08.659Z,35.6
2017-01-04T19:16:05.409Z,35.8
2017-01-04T19:18:06.067Z,35.7
2017-01-04T19:20:05.782Z,35.7
2017-01-04T19:22:05.069Z,35.4
2017-01-04T19:24:05.780Z,35.5
2017-01-04T19:26:06.314Z,35.5
2017-01-04T19:28:06.899Z,35.5
2017-01-04T19:30:05.652Z,35.5
2017-01-04T19:32:05.716Z,35.3
2017-01-04T19:34:06.135Z,35.5
2017-01-04T19:36:08.625Z,35.5
2017-01-04T19:38:05.495Z,35.2
2017-01-04T19:40:05.221Z,35.4
2017-01-04T19:42:05.470Z,35.2
2017-01-04T19:44:12.805Z,35.2
2017-01-04T19:46:05.718Z,35.2
2017-01-04T19:48:06.276Z,35.2
2017-01-04T19:50:05.772Z,35.3
2017-01-04T19:52:05.558Z,35.3
2017-01-04T19:54:05.291Z,35.3
2017-01-04T19:56:06.363Z,35.2
2017-01-04T19:58:05.067Z,35.2
2017-01-04T20:00:05.841Z,35.2
2017-01-04T20:02:05.585Z,35.2
2017-01-04T20:04:05.248Z,35.2
2017-01-04T20:06:06.051Z,35.2
2017-01-04T20:08:06.103Z,35
2017-01-04T20:10:08.124Z,35
2017-01-04T20:12:05.848Z,35
2017-01-04T20:14:05.760Z,35
2017-01-04T20:16:10.584Z,35
2017-01-04T20:18:05.539Z,35
2017-01-04T20:20:08.214Z,35.1
2017-01-04T20:22:09.060Z,35.1
2017-01-04T20:24:06.043Z,35.1
2017-01-04T20:26:06.268Z,35.1
2017-01-04T20:28:05.518Z,35.1
2017-01-04T20:30:07.813Z,35.2
2017-01-04T20:32:05.123Z,35.2
2017-01-04T20:34:05.866Z,35.1
2017-01-04T20:36:05.381Z,35.1
2017-01-04T20:38:05.311Z,35.1
2017-01-04T20:40:05.796Z,35.1
2017-01-04T20:42:08.184Z,35
2017-01-04T20:44:06.003Z,35
2017-01-04T20:46:06.006Z,35.1
2017-01-04T20:48:08.260Z,35
2017-01-04T20:50:06.317Z,34.8
2017-01-04T20:52:05.239Z,34.8
2017-01-04T20:54:05.545Z,34.8
2017-01-04T20:56:05.844Z,34.8
2017-01-04T20:58:05.620Z,34.8
2017-01-04T21:00:05.436Z,34.9
2017-01-04T21:02:05.509Z,34.9
2017-01-04T21:04:08.040Z,34.9
2017-01-04T21:06:05.844Z,34.9
2017-01-04T21:08:13.303Z,35
2017-01-04T21:10:05.390Z,34.7
2017-01-04T21:12:10.162Z,35
2017-01-04T21:14:06.201Z,34.7
2017-01-04T21:16:06.050Z,34.7
2017-01-04T21:18:05.984Z,34.8
2017-01-04T21:20:11.970Z,34.8
2017-01-04T21:22:05.995Z,34.8
2017-01-04T21:24:08.478Z,34.8
2017-01-04T21:26:05.565Z,34.8
2017-01-04T21:28:05.313Z,34.8
2017-01-04T21:30:05.124Z,34.8
2017-01-04T21:32:18.627Z,34.8
2017-01-04T21:34:05.582Z,34.9
2017-01-04T21:36:05.055Z,34.8
2017-01-04T21:38:12.905Z,34.8
2017-01-04T21:40:05.848Z,34.8
2017-01-04T21:42:05.841Z,34.8
2017-01-04T21:44:05.916Z,34.9
2017-01-04T21:46:05.683Z,34.9
2017-01-04T21:48:06.841Z,34.9
2017-01-04T21:50:06.513Z,34.9
2017-01-04T21:52:05.195Z,34.9
2017-01-04T21:54:06.089Z,34.9
2017-01-04T21:56:08.527Z,34.7
2017-01-04T21:58:07.776Z,34.8
2017-01-04T22:00:05.499Z,34.7
2017-01-04T22:02:05.377Z,34.8
2017-01-04T22:04:05.095Z,34.8
2017-01-04T22:06:08.362Z,34.8
2017-01-04T22:08:07.957Z,34.8
2017-01-04T22:10:05.702Z,34.8
2017-01-04T22:12:05.973Z,34.8
2017-01-04T22:14:05.715Z,34.8
2017-01-04T22:16:05.630Z,34.7
2017-01-04T22:18:08.311Z,34.6
2017-01-04T22:20:05.040Z,34.8
2017-01-04T22:22:05.752Z,34.8
2017-01-04T22:24:05.718Z,34.8
2017-01-04T22:26:05.642Z,34.8
2017-01-04T22:28:05.370Z,34.6
2017-01-04T22:30:05.117Z,34.6
2017-01-04T22:32:10.764Z,34.6
2017-01-04T22:34:10.526Z,34.8
2017-01-04T22:36:05.283Z,34.6
2017-01-04T22:38:05.679Z,34.8
2017-01-04T22:40:05.446Z,34.6
2017-01-04T22:42:05.168Z,34.8
2017-01-04T22:44:06.003Z,34.8
2017-01-04T22:46:11.210Z,34.9
2017-01-04T22:48:05.968Z,34.9
2017-01-04T22:50:05.262Z,34.9
2017-01-04T22:52:05.958Z,34.9
2017-01-04T22:54:05.646Z,34.9
2017-01-04T22:56:05.469Z,34.9
2017-01-04T22:58:05.203Z,34.9
2017-01-04T23:00:05.333Z,34.8
2017-01-04T23:02:05.741Z,34.8
2017-01-04T23:04:05.575Z,34.9
2017-01-04T23:06:05.328Z,34.8
2017-01-04T23:08:05.706Z,34.8
2017-01-04T23:10:05.472Z,34.8
2017-01-04T23:12:05.179Z,34.8
2017-01-04T23:14:11.220Z,34.8
2017-01-04T23:16:11.097Z,35
2017-01-04T23:18:05.282Z,35
2017-01-04T23:20:08.944Z,34.8
2017-01-04T23:22:05.772Z,34.8
2017-01-04T23:24:08.568Z,35
2017-01-04T23:26:05.368Z,35
2017-01-04T23:28:05.299Z,35
2017-01-04T23:30:11.127Z,35
2017-01-04T23:32:05.614Z,35
2017-01-04T23:34:05.521Z,34.9
2017-01-04T23:36:05.285Z,35
2017-01-04T23:38:06.064Z,34.9
2017-01-04T23:40:07.572Z,34.9
2017-01-04T23:42:08.125Z,34.9
2017-01-04T23:44:08.480Z,34.9
2017-01-04T23:48:05.743Z,34.9
2017-01-04T23:50:05.713Z,35
2017-01-04T23:52:05.639Z,34.9
2017-01-04T23:54:05.886Z,35
2017-01-04T23:56:08.282Z,35.4
2017-01-04T23:58:05.283Z,35.2
